sensor_id;sensor_type;location;lat;lon;timestamp;pressure;altitude;pressure_sealevel;temperature;humidity
21547;BME280;41275;51.912;4.388;2023-04-15T00:02:17;100780.09;;;18.32;32.95
21547;BME280;41275;51.912;4.388;2023-04-15T00:07:38;100785.47;;;18.27;33.15
21547;BME280;41275;51.912;4.388;2023-04-15T00:13:00;100779.91;;;18.19;33.29
21547;BME280;41275;51.912;4.388;2023-04-15T00:18:23;100780.44;;;18.15;33.43
21547;BME280;41275;51.912;4.388;2023-04-15T00:23:44;100786.38;;;18.12;33.43
21547;BME280;41275;51.912;4.388;2023-04-15T00:29:09;100782.66;;;18.08;33.38
21547;BME280;41275;51.912;4.388;2023-04-15T00:34:30;100779.19;;;18.08;33.63
21547;BME280;41275;51.912;4.388;2023-04-15T00:39:52;100781.38;;;18.01;33.64
21547;BME280;41275;51.912;4.388;2023-04-15T00:45:13;100792.38;;;17.94;33.83
21547;BME280;41275;51.912;4.388;2023-04-15T00:50:35;100790.84;;;17.78;33.89
21547;BME280;41275;51.912;4.388;2023-04-15T00:55:56;100789.00;;;17.63;33.75
21547;BME280;41275;51.912;4.388;2023-04-15T01:01:20;100783.94;;;17.56;34.04
21547;BME280;41275;51.912;4.388;2023-04-15T01:06:42;100777.28;;;17.54;34.07
21547;BME280;41275;51.912;4.388;2023-04-15T01:12:04;100783.13;;;17.56;34.13
21547;BME280;41275;51.912;4.388;2023-04-15T01:17:25;100789.28;;;17.56;33.87
21547;BME280;41275;51.912;4.388;2023-04-15T01:22:47;100787.97;;;17.54;34.09
21547;BME280;41275;51.912;4.388;2023-04-15T01:28:09;100785.56;;;17.52;33.98
21547;BME280;41275;51.912;4.388;2023-04-15T01:33:30;100783.44;;;17.49;34.42
21547;BME280;41275;51.912;4.388;2023-04-15T01:38:52;100780.00;;;17.38;34.29
21547;BME280;41275;51.912;4.388;2023-04-15T01:44:13;100781.09;;;17.27;34.84
21547;BME280;41275;51.912;4.388;2023-04-15T01:49:35;100791.81;;;17.17;34.58
21547;BME280;41275;51.912;4.388;2023-04-15T01:54:56;100786.22;;;17.08;34.43
21547;BME280;41275;51.912;4.388;2023-04-15T02:00:17;100796.94;;;16.98;35.18
21547;BME280;41275;51.912;4.388;2023-04-15T02:05:38;100790.53;;;16.84;35.59
21547;BME280;41275;51.912;4.388;2023-04-15T02:10:59;100789.72;;;16.73;35.98
21547;BME280;41275;51.912;4.388;2023-04-15T02:16:21;100794.00;;;16.64;35.81
21547;BME280;41275;51.912;4.388;2023-04-15T02:21:42;100803.59;;;16.55;36.03
21547;BME280;41275;51.912;4.388;2023-04-15T02:27:03;100806.81;;;16.47;36.15
21547;BME280;41275;51.912;4.388;2023-04-15T02:32:24;100810.00;;;16.43;36.36
21547;BME280;41275;51.912;4.388;2023-04-15T02:37:46;100813.47;;;16.44;36.65
21547;BME280;41275;51.912;4.388;2023-04-15T02:43:07;100838.84;;;16.41;36.80
21547;BME280;41275;51.912;4.388;2023-04-15T02:48:28;100831.63;;;16.37;36.84
21547;BME280;41275;51.912;4.388;2023-04-15T02:53:49;100832.41;;;16.32;37.23
21547;BME280;41275;51.912;4.388;2023-04-15T02:59:11;100844.97;;;16.32;37.36
21547;BME280;41275;51.912;4.388;2023-04-15T03:04:33;100843.91;;;16.28;37.07
21547;BME280;41275;51.912;4.388;2023-04-15T03:09:54;100855.38;;;16.23;37.31
21547;BME280;41275;51.912;4.388;2023-04-15T03:15:15;100861.75;;;16.17;37.82
21547;BME280;41275;51.912;4.388;2023-04-15T03:20:37;100860.13;;;16.11;38.08
21547;BME280;41275;51.912;4.388;2023-04-15T03:26:01;100866.53;;;16.05;37.72
21547;BME280;41275;51.912;4.388;2023-04-15T03:31:22;100872.09;;;15.98;37.93
21547;BME280;41275;51.912;4.388;2023-04-15T03:36:45;100883.84;;;16.02;38.45
21547;BME280;41275;51.912;4.388;2023-04-15T03:42:06;100891.06;;;16.02;38.23
21547;BME280;41275;51.912;4.388;2023-04-15T03:47:27;100899.34;;;16.00;38.49
21547;BME280;41275;51.912;4.388;2023-04-15T03:52:48;100908.16;;;16.01;38.53
21547;BME280;41275;51.912;4.388;2023-04-15T03:58:09;100907.34;;;16.05;38.39
21547;BME280;41275;51.912;4.388;2023-04-15T04:03:32;100911.41;;;16.13;38.34
21547;BME280;41275;51.912;4.388;2023-04-15T04:08:54;100923.97;;;16.17;38.01
21547;BME280;41275;51.912;4.388;2023-04-15T04:14:15;100933.28;;;16.10;38.09
21547;BME280;41275;51.912;4.388;2023-04-15T04:19:37;100937.78;;;16.04;38.38
21547;BME280;41275;51.912;4.388;2023-04-15T04:24:58;100936.16;;;16.03;38.49
21547;BME280;41275;51.912;4.388;2023-04-15T04:30:20;100940.97;;;15.96;38.62
21547;BME280;41275;51.912;4.388;2023-04-15T04:35:42;100962.75;;;15.83;39.23
21547;BME280;41275;51.912;4.388;2023-04-15T04:41:03;100968.06;;;15.78;39.34
21547;BME280;41275;51.912;4.388;2023-04-15T04:46:24;100976.28;;;15.71;39.61
21547;BME280;41275;51.912;4.388;2023-04-15T04:51:45;100995.09;;;15.59;39.81
21547;BME280;41275;51.912;4.388;2023-04-15T04:57:08;101000.31;;;15.44;39.89
21547;BME280;41275;51.912;4.388;2023-04-15T05:02:29;101005.00;;;15.32;40.17
21547;BME280;41275;51.912;4.388;2023-04-15T05:07:50;101016.41;;;15.22;40.43
21547;BME280;41275;51.912;4.388;2023-04-15T05:13:12;101025.66;;;15.14;40.81
21547;BME280;41275;51.912;4.388;2023-04-15T05:18:33;101037.69;;;15.17;41.22
21547;BME280;41275;51.912;4.388;2023-04-15T05:23:54;101039.91;;;15.25;40.93
21547;BME280;41275;51.912;4.388;2023-04-15T05:29:15;101057.53;;;15.31;40.96
21547;BME280;41275;51.912;4.388;2023-04-15T05:34:37;101062.91;;;15.36;41.45
21547;BME280;41275;51.912;4.388;2023-04-15T05:39:58;101072.28;;;15.39;41.36
21547;BME280;41275;51.912;4.388;2023-04-15T05:45:19;101083.56;;;15.46;41.37
21547;BME280;41275;51.912;4.388;2023-04-15T05:50:41;101092.69;;;15.55;41.08
21547;BME280;41275;51.912;4.388;2023-04-15T05:56:02;101113.13;;;15.66;41.13
21547;BME280;41275;51.912;4.388;2023-04-15T06:01:23;101116.59;;;15.67;40.88
21547;BME280;41275;51.912;4.388;2023-04-15T06:06:45;101138.00;;;15.72;41.15
21547;BME280;41275;51.912;4.388;2023-04-15T06:12:07;101136.69;;;15.80;41.04
21547;BME280;41275;51.912;4.388;2023-04-15T06:17:32;101156.84;;;15.92;40.64
21547;BME280;41275;51.912;4.388;2023-04-15T06:22:53;101168.97;;;16.05;40.72
21547;BME280;41275;51.912;4.388;2023-04-15T06:28:14;101176.50;;;16.13;40.60
21547;BME280;41275;51.912;4.388;2023-04-15T06:33:35;101177.69;;;16.28;40.65
21547;BME280;41275;51.912;4.388;2023-04-15T06:38:56;101193.50;;;16.34;40.40
21547;BME280;41275;51.912;4.388;2023-04-15T06:44:18;101201.81;;;16.38;40.40
21547;BME280;41275;51.912;4.388;2023-04-15T06:49:39;101206.09;;;16.39;40.22
21547;BME280;41275;51.912;4.388;2023-04-15T06:55:01;101214.38;;;16.42;40.36
21547;BME280;41275;51.912;4.388;2023-04-15T07:00:22;101225.19;;;16.58;40.27
21547;BME280;41275;51.912;4.388;2023-04-15T07:05:43;101236.75;;;16.68;39.99
21547;BME280;41275;51.912;4.388;2023-04-15T07:11:05;101233.59;;;16.72;40.00
21547;BME280;41275;51.912;4.388;2023-04-15T07:16:26;101237.72;;;16.89;39.76
21547;BME280;41275;51.912;4.388;2023-04-15T07:21:47;101243.16;;;17.05;40.00
21547;BME280;41275;51.912;4.388;2023-04-15T07:27:09;101256.88;;;17.18;39.93
21547;BME280;41275;51.912;4.388;2023-04-15T07:32:30;101269.28;;;17.40;39.60
21547;BME280;41275;51.912;4.388;2023-04-15T07:37:51;101272.53;;;17.47;39.15
21547;BME280;41275;51.912;4.388;2023-04-15T07:43:13;101283.03;;;17.64;39.06
21547;BME280;41275;51.912;4.388;2023-04-15T07:48:34;101286.34;;;17.81;38.96
21547;BME280;41275;51.912;4.388;2023-04-15T07:53:55;101297.09;;;18.02;38.71
21547;BME280;41275;51.912;4.388;2023-04-15T07:59:17;101301.69;;;18.17;38.54
21547;BME280;41275;51.912;4.388;2023-04-15T08:04:58;101311.63;;;18.31;38.02
21547;BME280;41275;51.912;4.388;2023-04-15T08:10:19;101323.69;;;18.49;38.30
21547;BME280;41275;51.912;4.388;2023-04-15T08:15:41;101337.97;;;18.75;37.61
21547;BME280;41275;51.912;4.388;2023-04-15T08:21:02;101337.13;;;18.85;37.66
21547;BME280;41275;51.912;4.388;2023-04-15T08:26:24;101350.03;;;18.98;37.57
21547;BME280;41275;51.912;4.388;2023-04-15T08:31:46;101362.03;;;19.21;37.32
21547;BME280;41275;51.912;4.388;2023-04-15T08:37:07;101370.09;;;19.31;37.11
21547;BME280;41275;51.912;4.388;2023-04-15T08:42:36;101384.03;;;19.38;36.74
21547;BME280;41275;51.912;4.388;2023-04-15T08:47:59;101385.34;;;19.51;36.84
21547;BME280;41275;51.912;4.388;2023-04-15T08:53:23;101394.16;;;19.57;36.85
21547;BME280;41275;51.912;4.388;2023-04-15T08:58:45;101405.69;;;19.73;36.77
21547;BME280;41275;51.912;4.388;2023-04-15T09:04:07;101411.56;;;19.90;36.71
21547;BME280;41275;51.912;4.388;2023-04-15T09:09:28;101425.72;;;20.16;36.25
21547;BME280;41275;51.912;4.388;2023-04-15T09:14:49;101424.56;;;20.27;36.11
21547;BME280;41275;51.912;4.388;2023-04-15T09:20:15;101432.91;;;20.26;36.55
21547;BME280;41275;51.912;4.388;2023-04-15T09:25:39;101449.06;;;20.16;35.81
21547;BME280;41275;51.912;4.388;2023-04-15T09:31:02;101454.47;;;20.10;35.42
21547;BME280;41275;51.912;4.388;2023-04-15T09:36:23;101460.03;;;20.29;34.65
21547;BME280;41275;51.912;4.388;2023-04-15T09:42:07;101467.19;;;20.59;33.93
21547;BME280;41275;51.912;4.388;2023-04-15T09:47:30;101479.25;;;20.62;32.87
21547;BME280;41275;51.912;4.388;2023-04-15T09:52:52;101481.34;;;20.75;32.91
21547;BME280;41275;51.912;4.388;2023-04-15T09:58:19;101493.41;;;20.78;31.99
21547;BME280;41275;51.912;4.388;2023-04-15T10:03:41;101499.28;;;20.85;31.26
21547;BME280;41275;51.912;4.388;2023-04-15T10:09:02;101496.56;;;20.90;29.82
21547;BME280;41275;51.912;4.388;2023-04-15T10:14:25;101499.16;;;21.05;30.37
21547;BME280;41275;51.912;4.388;2023-04-15T10:19:48;101502.63;;;21.11;29.24
21547;BME280;41275;51.912;4.388;2023-04-15T10:25:10;101519.72;;;21.30;30.16
21547;BME280;41275;51.912;4.388;2023-04-15T10:30:32;101520.50;;;21.31;29.93
21547;BME280;41275;51.912;4.388;2023-04-15T10:35:54;101512.97;;;21.33;29.51
21547;BME280;41275;51.912;4.388;2023-04-15T10:41:21;101531.13;;;21.51;29.31
21547;BME280;41275;51.912;4.388;2023-04-15T10:46:45;101530.47;;;21.36;29.45
21547;BME280;41275;51.912;4.388;2023-04-15T10:52:07;101527.47;;;21.37;29.66
21547;BME280;41275;51.912;4.388;2023-04-15T10:57:34;101541.06;;;21.56;29.05
21547;BME280;41275;51.912;4.388;2023-04-15T11:03:06;101550.19;;;21.60;29.07
21547;BME280;41275;51.912;4.388;2023-04-15T11:08:53;101561.84;;;21.79;28.28
21547;BME280;41275;51.912;4.388;2023-04-15T11:14:15;101559.59;;;21.92;28.17
21547;BME280;41275;51.912;4.388;2023-04-15T11:19:37;101568.38;;;22.02;27.97
21547;BME280;41275;51.912;4.388;2023-04-15T11:24:58;101570.97;;;22.13;28.18
21547;BME280;41275;51.912;4.388;2023-04-15T11:30:24;101579.94;;;22.32;28.51
21547;BME280;41275;51.912;4.388;2023-04-15T11:35:46;101579.44;;;22.30;28.49
21547;BME280;41275;51.912;4.388;2023-04-15T11:41:07;101591.66;;;22.22;27.84
21547;BME280;41275;51.912;4.388;2023-04-15T11:46:29;101581.38;;;22.72;28.32
21547;BME280;41275;51.912;4.388;2023-04-15T11:51:51;101600.44;;;22.57;28.16
21547;BME280;41275;51.912;4.388;2023-04-15T11:57:12;101603.25;;;22.47;28.00
21547;BME280;41275;51.912;4.388;2023-04-15T12:02:35;101609.72;;;22.70;27.37
21547;BME280;41275;51.912;4.388;2023-04-15T12:07:58;101609.22;;;22.87;27.34
21547;BME280;41275;51.912;4.388;2023-04-15T12:13:19;101613.50;;;23.68;27.13
21547;BME280;41275;51.912;4.388;2023-04-15T12:18:41;101623.81;;;23.66;27.97
21547;BME280;41275;51.912;4.388;2023-04-15T12:24:09;101623.06;;;23.42;29.16
21547;BME280;41275;51.912;4.388;2023-04-15T12:29:31;101640.81;;;24.46;29.20
21547;BME280;41275;51.912;4.388;2023-04-15T12:34:53;101654.66;;;25.94;27.55
21547;BME280;41275;51.912;4.388;2023-04-15T12:40:18;101652.88;;;25.76;27.03
21547;BME280;41275;51.912;4.388;2023-04-15T12:45:40;101659.97;;;25.63;26.94
21547;BME280;41275;51.912;4.388;2023-04-15T12:51:01;101662.94;;;25.17;27.14
21547;BME280;41275;51.912;4.388;2023-04-15T12:56:22;101687.31;;;25.53;27.39
21547;BME280;41275;51.912;4.388;2023-04-15T13:01:44;101679.31;;;26.15;26.63
21547;BME280;41275;51.912;4.388;2023-04-15T13:07:06;101691.56;;;26.35;26.62
21547;BME280;41275;51.912;4.388;2023-04-15T13:12:27;101701.97;;;26.73;25.76
21547;BME280;41275;51.912;4.388;2023-04-15T13:17:50;101709.94;;;27.70;24.90
21547;BME280;41275;51.912;4.388;2023-04-15T13:23:12;101710.25;;;27.42;24.70
21547;BME280;41275;51.912;4.388;2023-04-15T13:28:33;101718.97;;;26.96;24.55
21547;BME280;41275;51.912;4.388;2023-04-15T13:33:55;101727.09;;;27.88;24.81
21547;BME280;41275;51.912;4.388;2023-04-15T13:39:17;101723.88;;;27.60;23.67
21547;BME280;41275;51.912;4.388;2023-04-15T13:44:38;101728.50;;;27.51;23.74
21547;BME280;41275;51.912;4.388;2023-04-15T13:50:15;101739.53;;;27.46;24.01
21547;BME280;41275;51.912;4.388;2023-04-15T13:55:36;101759.38;;;26.98;24.38
21547;BME280;41275;51.912;4.388;2023-04-15T14:01:02;101761.47;;;26.92;24.94
21547;BME280;41275;51.912;4.388;2023-04-15T14:06:23;101753.28;;;27.58;23.82
21547;BME280;41275;51.912;4.388;2023-04-15T14:11:44;101771.63;;;29.03;23.40
21547;BME280;41275;51.912;4.388;2023-04-15T14:17:06;101780.22;;;29.14;22.22
21547;BME280;41275;51.912;4.388;2023-04-15T14:22:27;101780.84;;;29.41;22.08
21547;BME280;41275;51.912;4.388;2023-04-15T14:27:49;101790.56;;;30.13;21.29
21547;BME280;41275;51.912;4.388;2023-04-15T14:33:11;101799.69;;;29.54;21.65
21547;BME280;41275;51.912;4.388;2023-04-15T14:38:35;101817.09;;;29.11;21.89
21547;BME280;41275;51.912;4.388;2023-04-15T14:44:00;101828.50;;;28.96;22.31
21547;BME280;41275;51.912;4.388;2023-04-15T14:49:21;101823.00;;;28.75;22.93
21547;BME280;41275;51.912;4.388;2023-04-15T14:54:42;101831.69;;;29.45;22.45
21547;BME280;41275;51.912;4.388;2023-04-15T15:00:05;101844.88;;;29.05;22.94
21547;BME280;41275;51.912;4.388;2023-04-15T15:05:27;101852.91;;;29.31;22.94
21547;BME280;41275;51.912;4.388;2023-04-15T15:10:48;101854.69;;;28.97;22.71
21547;BME280;41275;51.912;4.388;2023-04-15T15:16:09;101873.03;;;28.10;23.50
21547;BME280;41275;51.912;4.388;2023-04-15T15:21:31;101866.31;;;28.07;23.63
21547;BME280;41275;51.912;4.388;2023-04-15T15:26:52;101874.84;;;29.05;22.93
21547;BME280;41275;51.912;4.388;2023-04-15T15:32:13;101887.63;;;28.57;23.10
21547;BME280;41275;51.912;4.388;2023-04-15T15:37:35;101897.53;;;28.10;23.61
21547;BME280;41275;51.912;4.388;2023-04-15T15:42:56;101896.44;;;24.30;27.11
21547;BME280;41275;51.912;4.388;2023-04-15T15:48:17;101900.00;;;22.76;29.81
21547;BME280;41275;51.912;4.388;2023-04-15T15:53:38;101912.16;;;21.74;31.00
21547;BME280;41275;51.912;4.388;2023-04-15T15:59:00;101921.13;;;21.24;31.92
21547;BME280;41275;51.912;4.388;2023-04-15T16:04:21;101933.78;;;21.23;32.53
21547;BME280;41275;51.912;4.388;2023-04-15T16:09:43;101944.00;;;20.80;32.92
21547;BME280;41275;51.912;4.388;2023-04-15T16:15:04;101949.06;;;20.62;33.44
21547;BME280;41275;51.912;4.388;2023-04-15T16:20:26;101949.28;;;20.45;33.58
21547;BME280;41275;51.912;4.388;2023-04-15T16:25:49;101958.06;;;20.20;33.98
21547;BME280;41275;51.912;4.388;2023-04-15T16:31:10;101964.94;;;19.95;34.66
21547;BME280;41275;51.912;4.388;2023-04-15T16:36:35;101969.66;;;19.73;34.84
21547;BME280;41275;51.912;4.388;2023-04-15T16:41:56;101991.13;;;19.68;35.17
21547;BME280;41275;51.912;4.388;2023-04-15T16:47:17;101989.06;;;19.48;35.03
21547;BME280;41275;51.912;4.388;2023-04-15T16:52:39;102005.63;;;19.02;35.79
21547;BME280;41275;51.912;4.388;2023-04-15T16:58:00;102023.84;;;18.78;36.58
21547;BME280;41275;51.912;4.388;2023-04-15T17:03:21;102034.34;;;18.80;36.71
21547;BME280;41275;51.912;4.388;2023-04-15T17:08:43;102041.38;;;20.20;35.90
21547;BME280;41275;51.912;4.388;2023-04-15T17:14:05;102027.00;;;22.45;32.81
21547;BME280;41275;51.912;4.388;2023-04-15T17:19:26;102039.44;;;23.30;30.77
21547;BME280;41275;51.912;4.388;2023-04-15T17:24:48;102036.28;;;22.73;30.85
21547;BME280;41275;51.912;4.388;2023-04-15T17:30:09;102051.72;;;23.12;29.91
21547;BME280;41275;51.912;4.388;2023-04-15T17:35:30;102051.72;;;22.63;30.12
21547;BME280;41275;51.912;4.388;2023-04-15T17:40:52;102056.03;;;21.73;31.17
21547;BME280;41275;51.912;4.388;2023-04-15T17:46:13;102067.31;;;20.46;32.44
21547;BME280;41275;51.912;4.388;2023-04-15T17:51:34;102068.31;;;18.52;35.02
21547;BME280;41275;51.912;4.388;2023-04-15T17:56:56;102070.88;;;17.86;36.19
21547;BME280;41275;51.912;4.388;2023-04-15T18:02:17;102080.91;;;17.46;37.10
21547;BME280;41275;51.912;4.388;2023-04-15T18:07:39;102095.97;;;17.35;38.26
21547;BME280;41275;51.912;4.388;2023-04-15T18:13:00;102095.16;;;17.34;38.56
21547;BME280;41275;51.912;4.388;2023-04-15T18:18:23;102096.16;;;17.16;38.60
21547;BME280;41275;51.912;4.388;2023-04-15T18:23:44;102116.41;;;16.84;38.94
21547;BME280;41275;51.912;4.388;2023-04-15T18:29:06;102114.19;;;16.69;39.32
21547;BME280;41275;51.912;4.388;2023-04-15T18:34:28;102121.22;;;16.47;39.70
21547;BME280;41275;51.912;4.388;2023-04-15T18:39:50;102132.78;;;16.64;39.92
21547;BME280;41275;51.912;4.388;2023-04-15T18:45:11;102137.91;;;16.65;39.96
21547;BME280;41275;51.912;4.388;2023-04-15T18:50:32;102142.69;;;16.40;40.39
21547;BME280;41275;51.912;4.388;2023-04-15T18:55:53;102163.59;;;16.19;40.83
21547;BME280;41275;51.912;4.388;2023-04-15T19:01:16;102157.09;;;16.15;40.95
21547;BME280;41275;51.912;4.388;2023-04-15T19:06:37;102148.59;;;16.07;40.80
21547;BME280;41275;51.912;4.388;2023-04-15T19:11:58;102156.03;;;16.05;41.01
21547;BME280;41275;51.912;4.388;2023-04-15T19:17:19;102172.38;;;15.85;41.73
21547;BME280;41275;51.912;4.388;2023-04-15T19:22:41;102174.06;;;15.79;41.67
21547;BME280;41275;51.912;4.388;2023-04-15T19:28:03;102189.44;;;15.84;41.83
21547;BME280;41275;51.912;4.388;2023-04-15T19:33:24;102183.81;;;15.55;42.43
21547;BME280;41275;51.912;4.388;2023-04-15T19:38:50;102202.66;;;15.60;42.26
21547;BME280;41275;51.912;4.388;2023-04-15T19:44:12;102193.00;;;15.59;42.54
21547;BME280;41275;51.912;4.388;2023-04-15T19:49:33;102189.97;;;15.56;42.60
21547;BME280;41275;51.912;4.388;2023-04-15T19:54:54;102197.56;;;15.40;42.90
21547;BME280;41275;51.912;4.388;2023-04-15T20:00:15;102198.53;;;15.28;42.91
21547;BME280;41275;51.912;4.388;2023-04-15T20:05:37;102196.63;;;15.16;42.97
21547;BME280;41275;51.912;4.388;2023-04-15T20:10:58;102205.38;;;15.23;43.39
21547;BME280;41275;51.912;4.388;2023-04-15T20:16:21;102206.59;;;15.39;43.18
21547;BME280;41275;51.912;4.388;2023-04-15T20:21:42;102195.63;;;15.47;43.27
21547;BME280;41275;51.912;4.388;2023-04-15T20:27:03;102192.06;;;15.54;43.82
21547;BME280;41275;51.912;4.388;2023-04-15T20:32:24;102198.22;;;15.54;43.58
21547;BME280;41275;51.912;4.388;2023-04-15T20:37:48;102214.91;;;15.50;43.73
21547;BME280;41275;51.912;4.388;2023-04-15T20:43:09;102208.97;;;15.47;43.59
21547;BME280;41275;51.912;4.388;2023-04-15T20:48:30;102212.38;;;15.36;43.38
21547;BME280;41275;51.912;4.388;2023-04-15T20:53:51;102239.00;;;15.25;43.53
21547;BME280;41275;51.912;4.388;2023-04-15T20:59:12;102235.00;;;15.15;43.66
21547;BME280;41275;51.912;4.388;2023-04-15T21:04:34;102221.59;;;15.22;43.24
21547;BME280;41275;51.912;4.388;2023-04-15T21:09:55;102231.00;;;15.25;42.79
21547;BME280;41275;51.912;4.388;2023-04-15T21:15:17;102227.75;;;15.22;43.21
21547;BME280;41275;51.912;4.388;2023-04-15T21:20:38;102224.16;;;15.29;43.29
21547;BME280;41275;51.912;4.388;2023-04-15T21:25:59;102239.16;;;15.30;43.49
21547;BME280;41275;51.912;4.388;2023-04-15T21:31:20;102243.59;;;15.36;43.41
21547;BME280;41275;51.912;4.388;2023-04-15T21:36:42;102252.13;;;15.44;43.33
21547;BME280;41275;51.912;4.388;2023-04-15T21:42:03;102244.25;;;15.50;43.37
21547;BME280;41275;51.912;4.388;2023-04-15T21:47:24;102255.72;;;15.50;43.15
21547;BME280;41275;51.912;4.388;2023-04-15T21:52:45;102249.28;;;15.58;42.99
21547;BME280;41275;51.912;4.388;2023-04-15T21:58:06;102261.69;;;15.64;43.39
21547;BME280;41275;51.912;4.388;2023-04-15T22:03:31;102256.75;;;15.67;43.14
21547;BME280;41275;51.912;4.388;2023-04-15T22:08:53;102259.03;;;15.64;43.59
21547;BME280;41275;51.912;4.388;2023-04-15T22:14:15;102258.41;;;15.68;43.62
21547;BME280;41275;51.912;4.388;2023-04-15T22:19:36;102255.56;;;15.82;43.77
21547;BME280;41275;51.912;4.388;2023-04-15T22:24:57;102289.31;;;15.76;43.36
21547;BME280;41275;51.912;4.388;2023-04-15T22:30:18;102268.84;;;15.70;43.49
21547;BME280;41275;51.912;4.388;2023-04-15T22:35:39;102274.19;;;15.70;43.69
21547;BME280;41275;51.912;4.388;2023-04-15T22:41:01;102283.53;;;15.61;44.03
21547;BME280;41275;51.912;4.388;2023-04-15T22:46:22;102295.59;;;15.63;44.00
21547;BME280;41275;51.912;4.388;2023-04-15T22:51:43;102285.72;;;15.64;43.85
21547;BME280;41275;51.912;4.388;2023-04-15T22:57:04;102289.63;;;15.68;43.73
21547;BME280;41275;51.912;4.388;2023-04-15T23:02:25;102298.09;;;15.65;43.67
21547;BME280;41275;51.912;4.388;2023-04-15T23:07:46;102294.56;;;15.64;44.36
21547;BME280;41275;51.912;4.388;2023-04-15T23:13:08;102300.56;;;15.78;43.59
21547;BME280;41275;51.912;4.388;2023-04-15T23:18:29;102299.09;;;15.82;43.78
21547;BME280;41275;51.912;4.388;2023-04-15T23:23:50;102307.59;;;15.91;43.62
21547;BME280;41275;51.912;4.388;2023-04-15T23:29:11;102313.72;;;15.91;43.76
21547;BME280;41275;51.912;4.388;2023-04-15T23:34:33;102307.38;;;15.92;44.20
21547;BME280;41275;51.912;4.388;2023-04-15T23:39:54;102303.53;;;15.88;44.20
21547;BME280;41275;51.912;4.388;2023-04-15T23:45:15;102308.69;;;16.02;44.58
21547;BME280;41275;51.912;4.388;2023-04-15T23:50:36;102297.38;;;15.88;44.81
21547;BME280;41275;51.912;4.388;2023-04-15T23:55:58;102299.31;;;15.81;45.29
